Time;durP1;ratioP1;P1;durP2;ratioP2;P2;SDS_P1;SDS_P2;PMS_P1;PMS_P2;Temp;Humidity;BMP_temperature;BMP_pressure;BME280_temperature;BME280_humidity;BME280_pressure;Samples;Min_cycle;Max_cycle;Signal;HPM_P1;HPM_P2
2023/04/20 00:00:36;;;;;;;16.08;12.52;;;15.30;87.10;;;;;;5054651;28;20033;-69
2023/04/20 00:03:02;;;;;;;15.00;12.35;;;15.30;87.30;;;;;;5036742;28;20040;-69
2023/04/20 00:05:29;;;;;;;15.20;12.27;;;15.20;87.60;;;;;;5054415;28;20486;-69
2023/04/20 00:07:54;;;;;;;17.60;13.45;;;15.20;88.00;;;;;;5054461;28;20025;-70
2023/04/20 00:10:20;;;;;;;18.70;13.15;;;15.10;88.10;;;;;;5054551;28;20094;-69
2023/04/20 00:12:46;;;;;;;16.40;13.30;;;15.10;88.10;;;;;;5054461;28;20141;-69
2023/04/20 00:15:11;;;;;;;20.50;15.68;;;15.00;88.10;;;;;;5054487;28;20029;-70
2023/04/20 00:17:38;;;;;;;21.13;16.27;;;15.00;88.20;;;;;;5036398;28;20048;-70
2023/04/20 00:20:04;;;;;;;24.88;16.33;;;15.00;88.10;;;;;;5051572;28;20040;-70
2023/04/20 00:22:30;;;;;;;20.40;16.45;;;14.90;88.30;;;;;;5054364;28;20032;-72
2023/04/20 00:24:56;;;;;;;20.02;16.10;;;14.90;88.50;;;;;;5054901;28;20029;-70
2023/04/20 00:27:21;;;;;;;23.23;16.23;;;14.80;88.80;;;;;;5054094;28;20040;-70
2023/04/20 00:29:47;;;;;;;23.27;16.42;;;14.80;88.90;;;;;;5054131;28;20108;-69
2023/04/20 00:32:13;;;;;;;23.48;17.23;;;14.70;88.70;;;;;;5054056;28;20402;-70
2023/04/20 00:34:38;;;;;;;26.55;16.83;;;14.70;88.90;;;;;;5054451;28;20137;-69
2023/04/20 00:37:05;;;;;;;22.65;16.60;;;14.70;89.20;;;;;;5054097;28;20037;-71
2023/04/20 00:39:30;;;;;;;22.98;16.05;;;14.70;89.10;;;;;;5053687;28;20119;-70
2023/04/20 00:42:04;;;;;;;20.95;15.95;;;14.70;89.20;;;;;;5054009;28;20430;-70
2023/04/20 00:44:29;;;;;;;19.50;14.05;;;14.70;89.40;;;;;;5053900;28;20033;-70
2023/04/20 00:46:56;;;;;;;20.45;16.48;;;14.70;89.20;;;;;;5053775;28;20501;-73
2023/04/20 00:49:24;;;;;;;21.30;16.10;;;14.60;89.00;;;;;;5054174;28;20033;-70
2023/04/20 00:51:50;;;;;;;23.38;16.00;;;14.60;89.10;;;;;;5036463;28;20029;-70
2023/04/20 00:54:15;;;;;;;24.00;18.02;;;14.60;88.90;;;;;;5053886;28;20025;-70
2023/04/20 00:56:41;;;;;;;22.92;18.20;;;14.60;89.10;;;;;;5053894;28;20478;-70
2023/04/20 00:59:08;;;;;;;24.23;17.95;;;14.50;89.10;;;;;;5035641;28;20060;-70
2023/04/20 01:01:33;;;;;;;24.80;18.13;;;14.50;89.30;;;;;;5053501;28;20063;-71
2023/04/20 01:03:59;;;;;;;24.95;18.58;;;14.40;89.20;;;;;;5053511;28;20137;-70
2023/04/20 01:06:26;;;;;;;21.80;17.85;;;14.40;89.40;;;;;;5053509;28;20478;-70
2023/04/20 01:08:52;;;;;;;20.50;16.42;;;14.30;89.30;;;;;;5053587;28;20044;-69
2023/04/20 01:11:18;;;;;;;22.00;17.83;;;14.30;89.40;;;;;;5053361;28;20033;-70
2023/04/20 01:13:43;;;;;;;20.85;17.17;;;14.20;89.50;;;;;;5053334;28;20116;-71
2023/04/20 01:16:10;;;;;;;24.90;17.55;;;14.20;89.60;;;;;;5053140;28;20080;-69
2023/04/20 01:18:47;;;;;;;21.13;17.02;;;14.20;89.60;;;;;;5053249;28;20037;-68
2023/04/20 01:21:15;;;;;;;23.73;18.05;;;14.20;89.30;;;;;;5053225;28;20043;-70
2023/04/20 01:23:41;;;;;;;22.08;17.17;;;14.20;89.80;;;;;;5053012;28;20025;-70
2023/04/20 01:26:08;;;;;;;25.75;18.92;;;14.20;89.60;;;;;;5053057;28;20056;-70
2023/04/20 01:28:33;;;;;;;26.83;18.45;;;14.10;89.70;;;;;;5053037;28;20033;-70
2023/04/20 01:31:00;;;;;;;20.95;17.95;;;14.10;89.60;;;;;;5052908;28;20132;-70
2023/04/20 01:33:26;;;;;;;22.67;17.33;;;14.00;89.70;;;;;;5034964;28;20040;-70
2023/04/20 01:35:52;;;;;;;21.60;17.60;;;14.00;89.90;;;;;;5052912;28;20041;-70
2023/04/20 01:38:20;;;;;;;23.77;17.88;;;14.00;89.80;;;;;;5052641;28;20124;-69
2023/04/20 01:40:45;;;;;;;22.13;17.98;;;14.00;90.10;;;;;;5052722;28;20033;-70
2023/04/20 01:43:11;;;;;;;20.95;17.25;;;14.00;90.00;;;;;;5052917;28;20095;-69
2023/04/20 01:45:37;;;;;;;23.13;17.20;;;14.00;90.00;;;;;;5052749;28;20024;-69
2023/04/20 01:48:03;;;;;;;23.15;16.80;;;14.00;90.00;;;;;;5052620;28;20363;-69
2023/04/20 01:50:28;;;;;;;23.00;17.15;;;14.00;90.00;;;;;;5052703;28;20078;-70
2023/04/20 01:52:54;;;;;;;21.50;16.98;;;14.00;90.10;;;;;;5052866;28;20041;-71
2023/04/20 01:55:20;;;;;;;23.08;17.23;;;14.00;90.10;;;;;;5052635;28;20090;-70
2023/04/20 01:57:45;;;;;;;21.10;16.75;;;14.00;90.00;;;;;;5052365;28;20037;-69
2023/04/20 02:00:13;;;;;;;21.05;17.20;;;13.90;90.00;;;;;;5052189;28;20029;-69
2023/04/20 02:02:39;;;;;;;20.65;16.20;;;13.90;90.00;;;;;;5052547;28;20037;-70
2023/04/20 02:05:05;;;;;;;25.70;17.13;;;14.00;90.00;;;;;;5052370;28;20348;-69
2023/04/20 02:07:31;;;;;;;18.92;16.42;;;14.00;90.00;;;;;;5034416;28;20453;-71
2023/04/20 02:09:56;;;;;;;26.23;16.27;;;14.00;90.00;;;;;;5034441;28;20112;-69
2023/04/20 02:12:22;;;;;;;20.48;15.90;;;14.00;89.90;;;;;;5052439;28;20382;-69
2023/04/20 02:14:47;;;;;;;18.27;15.05;;;14.00;89.70;;;;;;5052553;28;20390;-70
2023/04/20 02:17:13;;;;;;;19.45;16.23;;;14.00;89.70;;;;;;5052290;28;20084;-69
2023/04/20 02:19:39;;;;;;;21.13;16.08;;;14.00;89.70;;;;;;5052340;28;20041;-69
2023/04/20 02:22:05;;;;;;;18.67;15.93;;;13.90;89.60;;;;;;5052262;28;20112;-69
2023/04/20 02:24:31;;;;;;;21.45;15.50;;;13.90;89.90;;;;;;5051239;28;20544;-69
2023/04/20 02:26:57;;;;;;;19.00;15.85;;;13.80;89.90;;;;;;5034424;28;20071;-69
2023/04/20 02:29:23;;;;;;;21.63;16.00;;;13.80;90.00;;;;;;5052008;28;20095;-68
2023/04/20 02:31:49;;;;;;;20.17;15.88;;;13.80;90.10;;;;;;5052310;28;20036;-70
2023/04/20 02:34:15;;;;;;;18.58;16.25;;;13.80;90.20;;;;;;5052296;28;20112;-70
2023/04/20 02:36:40;;;;;;;19.35;16.20;;;13.70;90.10;;;;;;5051880;28;20540;-69
2023/04/20 02:39:06;;;;;;;23.33;15.77;;;13.70;90.10;;;;;;5051831;28;20123;-70
2023/04/20 02:41:32;;;;;;;20.80;14.95;;;13.70;90.10;;;;;;5052045;28;20037;-69
2023/04/20 02:43:57;;;;;;;20.95;15.98;;;13.70;90.20;;;;;;5052135;28;20036;-69
2023/04/20 02:46:23;;;;;;;20.52;15.63;;;13.60;90.10;;;;;;5051951;28;20051;-70
2023/04/20 02:48:49;;;;;;;20.90;16.52;;;13.60;90.20;;;;;;5052133;28;20057;-70
2023/04/20 02:51:15;;;;;;;19.95;16.13;;;13.60;90.30;;;;;;5051908;28;20021;-69
2023/04/20 02:53:40;;;;;;;22.20;16.60;;;13.60;90.30;;;;;;5052026;28;20047;-70
2023/04/20 02:56:06;;;;;;;17.92;15.45;;;13.60;90.40;;;;;;5052241;28;20026;-69
2023/04/20 02:58:32;;;;;;;19.52;15.88;;;13.60;90.40;;;;;;5051789;28;20451;-69
2023/04/20 03:01:01;;;;;;;22.98;16.90;;;13.60;90.30;;;;;;5051636;28;20466;-70
2023/04/20 03:03:28;;;;;;;19.35;15.38;;;13.60;90.30;;;;;;5051775;28;20488;-69
2023/04/20 03:05:54;;;;;;;18.75;15.02;;;13.60;90.40;;;;;;5051720;28;20025;-70
2023/04/20 03:08:20;;;;;;;18.58;15.20;;;13.60;90.40;;;;;;5051584;28;20044;-69
2023/04/20 03:10:46;;;;;;;21.33;15.55;;;13.50;90.50;;;;;;5051906;28;20108;-70
2023/04/20 03:13:12;;;;;;;18.35;14.98;;;13.50;90.50;;;;;;5051751;28;20518;-69
2023/04/20 03:15:37;;;;;;;20.88;14.88;;;13.40;90.50;;;;;;5033881;28;20029;-70
2023/04/20 03:18:03;;;;;;;20.00;15.48;;;13.40;90.50;;;;;;5033839;28;20103;-70
2023/04/20 03:20:29;;;;;;;20.42;15.75;;;13.40;90.40;;;;;;5051892;28;20087;-70
2023/04/20 03:22:55;;;;;;;21.35;14.75;;;13.30;90.50;;;;;;5051376;28;20402;-70
2023/04/20 03:25:21;;;;;;;20.27;15.80;;;13.30;90.60;;;;;;5051466;28;20112;-69
2023/04/20 03:27:47;;;;;;;23.77;16.02;;;13.30;90.60;;;;;;5051541;28;20155;-69
2023/04/20 03:30:13;;;;;;;20.70;14.88;;;13.20;90.70;;;;;;5051654;28;20390;-69
2023/04/20 03:32:40;;;;;;;22.42;14.80;;;13.20;90.80;;;;;;5051529;28;20565;-69
2023/04/20 03:35:06;;;;;;;17.20;13.73;;;13.30;90.70;;;;;;5052443;28;20040;-69
2023/04/20 03:37:32;;;;;;;18.20;13.50;;;13.20;90.70;;;;;;5054778;28;20037;-68
2023/04/20 03:39:57;;;;;;;23.45;13.75;;;13.20;90.70;;;;;;5055033;28;20052;-70
2023/04/20 03:42:23;;;;;;;18.00;12.70;;;13.20;90.70;;;;;;5054991;28;20112;-69
2023/04/20 03:44:49;;;;;;;16.85;12.73;;;13.20;90.80;;;;;;5054917;28;20463;-69
2023/04/20 03:47:14;;;;;;;14.55;11.93;;;13.20;90.80;;;;;;5055260;28;20037;-70
2023/04/20 03:49:40;;;;;;;16.35;12.15;;;13.20;90.80;;;;;;5054957;28;20036;-69
2023/04/20 03:52:06;;;;;;;14.75;11.95;;;13.20;90.80;;;;;;5036982;28;20033;-69
2023/04/20 03:54:32;;;;;;;15.10;11.25;;;13.20;90.80;;;;;;5054851;28;20036;-70
2023/04/20 03:56:57;;;;;;;14.57;11.25;;;13.20;90.80;;;;;;5054734;28;20119;-69
2023/04/20 03:59:23;;;;;;;15.25;11.80;;;13.20;90.80;;;;;;5054622;28;20037;-70
2023/04/20 04:01:49;;;;;;;14.55;11.13;;;13.20;90.70;;;;;;5054799;28;20041;-70
2023/04/20 04:04:15;;;;;;;15.18;11.02;;;13.20;90.70;;;;;;5055025;28;20043;-71
2023/04/20 04:06:40;;;;;;;12.80;10.10;;;13.20;90.70;;;;;;5055128;28;20120;-71
2023/04/20 04:09:07;;;;;;;15.20;11.25;;;13.20;90.60;;;;;;5055422;28;20105;-71
2023/04/20 04:11:33;;;;;;;15.27;10.95;;;13.10;90.40;;;;;;5055255;28;20386;-70
2023/04/20 04:13:59;;;;;;;13.93;11.43;;;13.10;90.60;;;;;;5054951;28;20025;-70
2023/04/20 04:16:24;;;;;;;13.88;10.40;;;13.00;90.60;;;;;;5054450;28;20037;-71
2023/04/20 04:18:50;;;;;;;15.02;11.32;;;13.00;90.60;;;;;;5054537;28;20037;-70
2023/04/20 04:21:16;;;;;;;16.67;11.27;;;13.00;90.60;;;;;;5036074;28;20036;-69
2023/04/20 04:23:42;;;;;;;14.32;11.60;;;13.00;90.60;;;;;;5054206;28;20489;-70
2023/04/20 04:26:10;;;;;;;14.25;11.80;;;13.00;90.70;;;;;;5054149;28;20406;-71
2023/04/20 04:28:36;;;;;;;15.98;11.45;;;13.00;90.60;;;;;;5054075;28;20025;-70
2023/04/20 04:31:05;;;;;;;15.43;10.88;;;13.00;90.60;;;;;;5054250;28;20025;-70
2023/04/20 04:33:33;;;;;;;15.38;10.82;;;13.00;90.60;;;;;;5054183;28;20036;-70
2023/04/20 04:35:59;;;;;;;15.15;10.18;;;13.00;90.50;;;;;;5054048;28;20029;-70
2023/04/20 04:38:25;;;;;;;15.18;10.25;;;13.00;90.50;;;;;;5053851;28;20135;-69
2023/04/20 04:40:51;;;;;;;12.50;9.32;;;13.00;90.50;;;;;;5054045;28;20033;-69
2023/04/20 04:43:18;;;;;;;15.73;9.02;;;13.00;90.40;;;;;;5053756;28;20108;-71
2023/04/20 04:45:44;;;;;;;11.18;8.80;;;13.10;90.40;;;;;;5053816;28;20075;-69
2023/04/20 04:48:11;;;;;;;13.93;8.75;;;13.10;90.30;;;;;;5052977;28;20037;-69
2023/04/20 04:50:39;;;;;;;9.65;7.57;;;13.10;90.30;;;;;;5053701;28;20095;-69
2023/04/20 04:53:05;;;;;;;10.75;8.20;;;13.10;90.10;;;;;;5053556;28;20029;-70
2023/04/20 04:55:32;;;;;;;11.65;8.55;;;13.10;90.10;;;;;;5053592;28;20372;-70
2023/04/20 04:57:57;;;;;;;12.63;7.78;;;13.10;90.10;;;;;;5053604;28;20045;-72
2023/04/20 05:00:25;;;;;;;13.70;7.40;;;13.20;90.10;;;;;;5053694;28;20055;-70
2023/04/20 05:02:54;;;;;;;10.73;7.30;;;13.20;90.00;;;;;;5053538;28;20109;-70
2023/04/20 05:05:21;;;;;;;11.85;7.55;;;13.20;89.50;;;;;;5053494;28;20040;-69
2023/04/20 05:07:47;;;;;;;10.73;7.53;;;13.20;89.80;;;;;;5053494;28;20431;-72
2023/04/20 05:10:13;;;;;;;13.82;7.55;;;13.20;89.40;;;;;;5053650;28;20078;-70
2023/04/20 05:12:38;;;;;;;14.15;7.75;;;13.20;89.30;;;;;;5053580;28;20094;-70
2023/04/20 05:15:05;;;;;;;12.48;7.20;;;13.10;89.20;;;;;;5053676;28;20025;-70
2023/04/20 05:17:31;;;;;;;14.02;8.45;;;13.20;90.00;;;;;;5053536;28;20040;-69
2023/04/20 05:19:56;;;;;;;11.20;7.60;;;13.20;89.10;;;;;;5053562;28;20048;-70
2023/04/20 05:22:22;;;;;;;15.05;7.80;;;13.20;89.10;;;;;;5053167;28;20040;-70
2023/04/20 05:24:48;;;;;;;14.57;8.68;;;13.30;89.20;;;;;;5053253;28;20036;-71
2023/04/20 05:27:14;;;;;;;14.38;9.32;;;13.40;88.90;;;;;;5052844;28;20059;-69
2023/04/20 05:29:39;;;;;;;14.07;8.88;;;13.40;88.50;;;;;;5035375;28;20033;-70
2023/04/20 05:32:05;;;;;;;12.98;8.90;;;13.50;88.40;;;;;;5052926;28;20033;-69
2023/04/20 05:34:31;;;;;;;12.32;8.93;;;13.50;88.40;;;;;;5052987;28;20391;-71
2023/04/20 05:36:58;;;;;;;15.30;9.45;;;13.60;88.30;;;;;;5034843;28;20041;-71
2023/04/20 05:39:23;;;;;;;15.77;9.98;;;13.60;88.30;;;;;;5052603;28;20131;-71
2023/04/20 05:41:49;;;;;;;14.93;10.00;;;13.60;88.10;;;;;;5052625;28;20566;-70
2023/04/20 05:44:15;;;;;;;17.27;10.20;;;13.60;88.40;;;;;;5052371;28;20048;-70
2023/04/20 05:46:41;;;;;;;13.13;9.50;;;13.70;88.40;;;;;;5052248;28;20025;-70
2023/04/20 05:49:06;;;;;;;15.40;10.38;;;13.70;88.20;;;;;;5052233;28;20045;-71
2023/04/20 05:51:32;;;;;;;17.52;10.95;;;13.80;88.00;;;;;;5052352;28;20036;-71
2023/04/20 05:54:02;;;;;;;18.58;11.10;;;13.90;87.90;;;;;;5052185;28;20037;-71
2023/04/20 05:56:28;;;;;;;15.25;10.98;;;13.90;87.90;;;;;;5052135;28;20048;-70
2023/04/20 05:58:55;;;;;;;16.00;10.98;;;13.90;88.20;;;;;;5033943;28;20037;-70
2023/04/20 06:01:20;;;;;;;18.55;11.45;;;13.90;88.10;;;;;;5051655;28;20037;-71
2023/04/20 06:03:47;;;;;;;21.55;11.45;;;14.00;88.00;;;;;;5052113;28;20033;-70
2023/04/20 06:06:14;;;;;;;18.40;11.52;;;14.10;87.90;;;;;;5051950;28;20044;-69
2023/04/20 06:08:39;;;;;;;18.05;11.90;;;14.20;87.40;;;;;;5052042;28;20037;-70
2023/04/20 06:11:05;;;;;;;19.45;11.18;;;14.30;87.00;;;;;;5051893;28;20040;-70
2023/04/20 06:13:31;;;;;;;26.27;12.55;;;14.60;86.60;;;;;;5052126;28;20068;-70
2023/04/20 06:15:57;;;;;;;24.05;12.30;;;14.80;86.20;;;;;;5051723;28;20075;-69
2023/04/20 06:18:22;;;;;;;20.65;12.13;;;15.00;85.40;;;;;;5051934;28;20489;-71
2023/04/20 06:20:48;;;;;;;18.77;12.27;;;15.00;84.90;;;;;;5052011;28;20032;-70
2023/04/20 06:23:14;;;;;;;18.23;11.73;;;15.10;84.50;;;;;;5051737;28;20474;-70
2023/04/20 06:25:40;;;;;;;20.33;11.68;;;15.20;84.50;;;;;;5051986;28;20025;-69
2023/04/20 06:28:06;;;;;;;18.88;12.10;;;15.40;84.30;;;;;;5033843;28;20063;-70
2023/04/20 06:30:33;;;;;;;21.75;11.48;;;15.70;83.70;;;;;;5051739;28;20083;-70
2023/04/20 06:33:02;;;;;;;21.88;11.57;;;15.90;82.90;;;;;;5051637;28;20036;-69
2023/04/20 06:35:28;;;;;;;18.23;11.10;;;16.10;82.90;;;;;;5051651;28;20029;-69
2023/04/20 06:37:56;;;;;;;21.77;11.25;;;16.30;81.90;;;;;;5051622;28;20128;-71
2023/04/20 06:40:25;;;;;;;17.95;11.52;;;16.40;81.30;;;;;;5051333;28;20049;-70
2023/04/20 06:42:50;;;;;;;29.92;11.98;;;16.50;80.70;;;;;;5051483;28;20033;-70
2023/04/20 06:45:17;;;;;;;26.40;11.43;;;16.70;80.80;;;;;;5051629;28;20040;-69
2023/04/20 06:47:42;;;;;;;28.23;12.60;;;16.80;80.10;;;;;;5051609;28;20029;-71
2023/04/20 06:50:08;;;;;;;26.08;11.80;;;16.90;79.90;;;;;;5051499;28;20035;-71
2023/04/20 06:52:37;;;;;;;23.67;11.95;;;17.00;79.80;;;;;;5051814;28;20115;-71
2023/04/20 06:55:03;;;;;;;25.48;12.10;;;17.10;79.30;;;;;;5033376;28;20123;-71
2023/04/20 06:57:28;;;;;;;22.80;11.23;;;17.20;78.90;;;;;;5051159;28;20136;-71
2023/04/20 06:59:54;;;;;;;19.75;11.90;;;17.40;79.30;;;;;;5051543;28;20045;-71
2023/04/20 07:02:20;;;;;;;19.23;11.55;;;17.60;78.50;;;;;;5051358;28;20037;-71
2023/04/20 07:04:46;;;;;;;19.33;12.90;;;17.90;78.00;;;;;;5051311;28;20871;-70
2023/04/20 07:07:14;;;;;;;21.02;12.73;;;17.90;77.20;;;;;;5050900;28;20075;-70
2023/04/20 07:09:40;;;;;;;18.98;11.75;;;18.00;77.90;;;;;;5033631;28;20037;-70
2023/04/20 07:12:06;;;;;;;18.35;11.90;;;18.10;77.20;;;;;;5055134;28;20032;-72
2023/04/20 07:14:31;;;;;;;20.45;12.00;;;18.20;77.10;;;;;;5055120;28;20658;-71
2023/04/20 07:16:57;;;;;;;14.98;12.30;;;18.20;76.20;;;;;;5055151;28;20047;-72
2023/04/20 07:19:23;;;;;;;15.50;11.70;;;18.20;76.00;;;;;;5054840;28;20120;-71
2023/04/20 07:21:48;;;;;;;15.85;10.60;;;18.10;75.50;;;;;;5055146;28;20033;-72
2023/04/20 07:24:14;;;;;;;16.48;10.75;;;18.10;76.30;;;;;;5054980;28;20036;-69
2023/04/20 07:26:40;;;;;;;12.15;9.55;;;18.30;76.20;;;;;;5055150;28;20029;-70
2023/04/20 07:29:05;;;;;;;16.77;10.93;;;18.40;75.40;;;;;;5054992;28;20395;-71
2023/04/20 07:31:31;;;;;;;15.50;10.00;;;18.40;75.00;;;;;;5054903;28;20025;-70
2023/04/20 07:33:57;;;;;;;15.55;10.02;;;18.40;75.20;;;;;;5055182;28;20040;-70
2023/04/20 07:36:22;;;;;;;14.20;9.23;;;18.40;75.80;;;;;;5054741;28;20523;-72
2023/04/20 07:38:48;;;;;;;18.88;11.23;;;18.50;74.70;;;;;;5054898;28;20095;-72
2023/04/20 07:41:14;;;;;;;12.30;9.45;;;18.50;74.50;;;;;;5054836;28;20029;-70
2023/04/20 07:43:40;;;;;;;13.73;9.48;;;18.40;74.30;;;;;;5054635;28;20388;-70
2023/04/20 07:46:06;;;;;;;25.65;9.50;;;18.40;74.30;;;;;;5054826;28;20032;-71
2023/04/20 07:48:36;;;;;;;13.02;8.30;;;18.50;74.50;;;;;;5054701;28;20474;-71
2023/04/20 07:51:01;;;;;;;11.43;8.10;;;18.70;73.80;;;;;;5054894;28;20029;-70
2023/04/20 07:53:30;;;;;;;12.95;8.70;;;18.90;73.30;;;;;;5054640;28;20475;-70
2023/04/20 07:55:56;;;;;;;12.25;8.10;;;19.00;72.90;;;;;;5054576;28;20483;-71
2023/04/20 07:58:22;;;;;;;11.43;7.88;;;19.00;71.80;;;;;;5054817;28;20075;-71
2023/04/20 08:00:47;;;;;;;11.00;7.78;;;19.00;72.00;;;;;;5054775;28;20486;-71
2023/04/20 08:03:13;;;;;;;10.32;7.45;;;19.00;71.50;;;;;;5054949;28;20037;-70
2023/04/20 08:05:39;;;;;;;10.77;7.25;;;18.90;71.40;;;;;;5054538;28;20065;-70
2023/04/20 08:08:06;;;;;;;12.43;7.60;;;18.90;71.10;;;;;;5054645;28;20071;-72
2023/04/20 08:10:31;;;;;;;10.60;7.50;;;18.90;71.40;;;;;;5054415;28;20033;-71
2023/04/20 08:12:58;;;;;;;12.93;8.55;;;18.90;71.30;;;;;;5054644;28;20498;-71
2023/04/20 08:15:23;;;;;;;12.95;8.32;;;18.90;71.30;;;;;;5054584;28;20375;-72
2023/04/20 08:17:49;;;;;;;9.55;7.55;;;18.90;71.30;;;;;;5053985;28;20048;-70
2023/04/20 08:20:15;;;;;;;11.45;7.20;;;18.80;71.00;;;;;;5054288;28;20503;-71
2023/04/20 08:22:41;;;;;;;9.13;6.60;;;18.70;70.40;;;;;;5054247;28;20033;-71
2023/04/20 08:25:07;;;;;;;11.88;8.25;;;18.70;70.20;;;;;;5054317;28;20171;-70
2023/04/20 08:27:32;;;;;;;8.35;6.72;;;18.70;70.20;;;;;;5054315;28;20497;-70
2023/04/20 08:29:58;;;;;;;8.95;6.85;;;18.70;69.20;;;;;;5053963;28;20029;-70
2023/04/20 08:32:25;;;;;;;14.95;6.70;;;18.60;69.10;;;;;;5054029;28;20393;-71
2023/04/20 08:34:52;;;;;;;10.77;6.50;;;18.60;69.00;;;;;;5054125;28;20033;-70
2023/04/20 08:37:18;;;;;;;10.63;6.40;;;18.60;69.00;;;;;;5053961;28;20087;-71
2023/04/20 08:39:44;;;;;;;12.27;6.43;;;18.60;69.40;;;;;;5053754;28;20063;-69
2023/04/20 08:42:10;;;;;;;10.20;6.40;;;18.50;68.80;;;;;;5035936;28;20040;-70
2023/04/20 08:44:35;;;;;;;10.70;6.85;;;18.60;68.90;;;;;;5035924;28;20554;-72
2023/04/20 08:47:02;;;;;;;11.07;6.53;;;18.60;68.70;;;;;;5053890;28;20037;-71
2023/04/20 08:49:31;;;;;;;10.25;6.38;;;18.60;68.40;;;;;;5053906;28;20040;-70
2023/04/20 08:51:57;;;;;;;7.82;6.38;;;18.60;68.20;;;;;;5053916;28;20033;-70
2023/04/20 08:54:23;;;;;;;9.25;6.15;;;18.70;68.20;;;;;;5053366;28;20038;-72
2023/04/20 08:56:49;;;;;;;8.38;6.32;;;18.80;67.80;;;;;;5053459;28;20043;-70
2023/04/20 08:59:15;;;;;;;9.10;6.28;;;18.90;68.00;;;;;;5053407;28;20040;-72
2023/04/20 09:01:42;;;;;;;10.80;6.15;;;18.90;67.40;;;;;;5035541;28;20403;-70
2023/04/20 09:04:22;;;;;;;8.45;5.78;;;18.90;67.50;;;;;;5053356;28;20474;-70
2023/04/20 09:06:50;;;;;;;14.40;5.80;;;19.00;67.50;;;;;;5053140;28;20060;-70
2023/04/20 09:09:17;;;;;;;10.25;5.70;;;19.10;67.20;;;;;;5053276;28;20032;-69
2023/04/20 09:11:43;;;;;;;11.55;5.78;;;19.20;66.80;;;;;;5053444;28;20044;-70
2023/04/20 09:14:12;;;;;;;10.00;5.78;;;19.40;66.70;;;;;;5035385;28;20037;-71
2023/04/20 09:16:52;;;;;;;8.77;5.40;;;19.50;66.00;;;;;;5053093;28;20029;-71
2023/04/20 09:19:24;;;;;;;10.07;5.28;;;19.60;65.70;;;;;;5053092;28;20379;-72
2023/04/20 09:21:55;;;;;;;7.53;4.90;;;19.60;65.50;;;;;;5053308;28;20047;-70
2023/04/20 09:24:23;;;;;;;8.20;5.32;;;19.70;64.80;;;;;;5034961;28;20029;-71
2023/04/20 09:26:48;;;;;;;6.97;5.05;;;19.80;64.50;;;;;;5053156;28;20029;-70
2023/04/20 09:29:20;;;;;;;6.82;4.40;;;19.80;64.20;;;;;;5053121;28;20148;-71
2023/04/20 09:31:46;;;;;;;10.65;4.70;;;19.90;64.10;;;;;;5052443;28;20033;-72
2023/04/20 09:34:13;;;;;;;7.40;4.13;;;19.90;63.60;;;;;;5051955;28;20025;-72
2023/04/20 09:36:41;;;;;;;13.43;4.53;;;19.90;62.90;;;;;;5051490;28;20029;-71
2023/04/20 09:39:16;;;;;;;7.57;3.58;;;19.90;63.70;;;;;;5052500;28;20137;-72
2023/04/20 09:41:43;;;;;;;10.00;3.55;;;19.90;63.40;;;;;;5052321;28;20456;-71
2023/04/20 09:44:10;;;;;;;10.07;4.47;;;20.00;63.00;;;;;;5052062;28;20118;-73
2023/04/20 09:46:38;;;;;;;14.23;4.47;;;20.00;62.80;;;;;;5052456;28;20029;-72
2023/04/20 09:49:06;;;;;;;22.42;5.50;;;20.00;62.80;;;;;;5052444;28;20033;-68
2023/04/20 09:51:34;;;;;;;9.90;4.40;;;20.10;62.60;;;;;;5051958;28;20041;-71
2023/04/20 09:54:02;;;;;;;7.50;3.67;;;20.10;62.50;;;;;;5051997;28;20490;-72
2023/04/20 09:56:29;;;;;;;11.15;4.18;;;20.20;62.50;;;;;;5052650;28;20383;-73
2023/04/20 09:58:56;;;;;;;8.90;4.45;;;20.20;61.80;;;;;;5052734;28;20040;-73
2023/04/20 10:01:23;;;;;;;9.98;3.95;;;20.20;61.90;;;;;;5033857;28;20399;-73
2023/04/20 10:03:56;;;;;;;8.00;3.88;;;20.20;61.40;;;;;;5052145;28;20041;-74
2023/04/20 10:06:27;;;;;;;9.82;3.53;;;20.20;61.80;;;;;;5052177;28;20029;-74
2023/04/20 10:08:54;;;;;;;6.35;2.70;;;20.20;60.60;;;;;;5052131;28;20037;-75
2023/04/20 10:11:40;;;;;;;4.43;2.70;;;20.20;60.10;;;;;;5052247;28;20044;-73
2023/04/20 10:14:17;;;;;;;8.02;3.22;;;20.20;59.90;;;;;;5051680;28;20479;-74
2023/04/20 10:16:44;;;;;;;5.43;3.35;;;20.20;59.90;;;;;;5031848;28;20152;-72
2023/04/20 10:19:10;;;;;;;7.88;2.72;;;20.20;59.90;;;;;;5050886;28;20366;-74
2023/04/20 10:21:47;;;;;;;5.95;2.70;;;20.40;59.70;;;;;;5051538;28;20087;-71
2023/04/20 10:24:13;;;;;;;8.88;3.70;;;20.60;58.90;;;;;;5050781;28;20123;-74
2023/04/20 10:26:44;;;;;;;4.38;2.58;;;20.90;58.70;;;;;;5035156;28;20039;-73
2023/04/20 10:29:11;;;;;;;8.65;3.50;;;20.90;58.70;;;;;;5052138;28;20055;-66
2023/04/20 10:31:41;;;;;;;4.10;2.67;;;20.90;58.60;;;;;;5051340;28;20044;-63
2023/04/20 10:34:07;;;;;;;11.07;4.00;;;20.80;59.10;;;;;;5051718;28;20044;-67
2023/04/20 10:36:37;;;;;;;8.68;3.58;;;20.90;58.90;;;;;;5051612;28;20025;-64
2023/04/20 10:39:15;;;;;;;4.82;2.90;;;21.10;59.10;;;;;;5051553;28;20162;-63
2023/04/20 10:42:07;;;;;;;8.32;2.80;;;21.10;58.40;;;;;;5051360;28;20048;-64
2023/04/20 10:44:34;;;;;;;6.00;3.05;;;21.20;58.10;;;;;;5048207;28;20056;-65
2023/04/20 10:47:00;;;;;;;5.85;2.55;;;21.20;58.20;;;;;;5055760;28;20512;-65
2023/04/20 10:49:30;;;;;;;26.00;5.13;;;21.20;57.70;;;;;;5055747;28;20130;-64
2023/04/20 10:51:56;;;;;;;6.45;2.38;;;21.30;57.80;;;;;;5054962;28;20021;-64
2023/04/20 10:54:22;;;;;;;6.18;2.65;;;21.30;57.20;;;;;;5055698;28;20033;-63
2023/04/20 10:56:53;;;;;;;7.25;2.78;;;21.30;57.30;;;;;;5055696;28;20037;-66
2023/04/20 10:59:21;;;;;;;8.80;2.88;;;21.30;58.00;;;;;;5055884;28;20040;-65
2023/04/20 11:01:49;;;;;;;6.70;2.88;;;21.30;57.30;;;;;;5055875;28;20545;-73
2023/04/20 11:04:15;;;;;;;4.10;2.47;;;21.50;57.50;;;;;;5055403;28;20090;-72
2023/04/20 11:06:43;;;;;;;7.53;2.90;;;21.70;57.10;;;;;;5055495;28;20452;-72
2023/04/20 11:09:17;;;;;;;5.93;2.45;;;21.80;57.20;;;;;;5054892;28;20078;-70
2023/04/20 11:11:43;;;;;;;102.72;11.52;;;22.00;56.60;;;;;;5054886;28;20141;-70
2023/04/20 11:14:11;;;;;;;37.47;8.85;;;22.00;55.60;;;;;;5055349;28;20037;-69
2023/04/20 11:16:37;;;;;;;8.25;2.90;;;22.10;55.60;;;;;;5054880;28;20084;-70
2023/04/20 11:19:04;;;;;;;5.32;2.40;;;22.30;55.70;;;;;;5036715;28;20417;-69
2023/04/20 11:21:38;;;;;;;7.13;2.55;;;22.40;55.20;;;;;;5055229;28;20094;-69
2023/04/20 11:24:20;;;;;;;5.53;2.88;;;22.60;54.80;;;;;;5055341;28;20426;-80
2023/04/20 11:26:51;;;;;;;4.00;2.42;;;22.70;53.50;;;;;;5055548;28;20087;-76
2023/04/20 11:29:34;;;;;;;6.25;2.85;;;22.70;53.60;;;;;;5054581;28;20055;-76
2023/04/20 11:32:08;;;;;;;16.38;3.72;;;22.80;52.70;;;;;;5066736;28;20112;-79
2023/04/20 11:34:35;;;;;;;5.38;2.92;;;23.00;52.60;;;;;;5055232;28;20048;-78
2023/04/20 11:37:06;;;;;;;4.32;2.50;;;23.20;53.70;;;;;;5055182;28;20127;-76
2023/04/20 11:39:32;;;;;;;6.68;2.75;;;23.10;53.00;;;;;;5054717;28;20064;-77
2023/04/20 11:41:58;;;;;;;7.13;3.08;;;23.10;53.30;;;;;;5054318;28;20037;-79
2023/04/20 11:44:25;;;;;;;5.57;3.03;;;23.10;52.90;;;;;;5054820;28;20124;-77
2023/04/20 11:46:55;;;;;;;6.20;2.97;;;23.00;53.10;;;;;;5054868;28;20048;-78
2023/04/20 11:49:22;;;;;;;5.82;2.60;;;23.00;53.70;;;;;;5054592;28;20469;-77
2023/04/20 11:51:48;;;;;;;4.40;2.38;;;23.00;53.70;;;;;;5054958;28;20044;-77
2023/04/20 11:54:14;;;;;;;5.80;2.45;;;22.90;53.40;;;;;;5054866;28;20099;-77
2023/04/20 11:56:43;;;;;;;3.65;2.40;;;22.90;53.50;;;;;;5054169;28;20476;-76
2023/04/20 11:59:10;;;;;;;5.82;2.78;;;23.00;53.20;;;;;;5054845;28;20048;-76
2023/04/20 12:01:36;;;;;;;5.60;2.70;;;23.00;53.40;;;;;;5036845;28;20041;-77
2023/04/20 12:04:03;;;;;;;3.78;2.45;;;23.10;53.30;;;;;;5054731;28;20040;-76
2023/04/20 12:06:30;;;;;;;5.00;2.53;;;23.10;53.40;;;;;;5054408;28;20043;-78
2023/04/20 12:08:56;;;;;;;4.78;2.80;;;23.10;53.60;;;;;;5054716;28;20033;-77
2023/04/20 12:11:22;;;;;;;4.60;2.88;;;23.00;53.30;;;;;;5054381;28;20074;-78
2023/04/20 12:13:48;;;;;;;4.03;2.70;;;22.80;53.70;;;;;;5054570;28;20111;-78
2023/04/20 12:16:14;;;;;;;4.50;2.55;;;22.50;53.80;;;;;;5054499;28;20079;-77
2023/04/20 12:18:40;;;;;;;4.63;2.70;;;22.20;54.40;;;;;;5054772;28;20091;-77
2023/04/20 12:21:06;;;;;;;7.45;3.10;;;22.30;54.50;;;;;;5054549;28;20029;-77
2023/04/20 12:23:32;;;;;;;6.43;2.75;;;22.30;54.30;;;;;;5054614;28;20529;-76
2023/04/20 12:25:58;;;;;;;4.47;2.75;;;22.20;54.20;;;;;;5054618;28;20041;-77
2023/04/20 12:28:24;;;;;;;5.78;2.88;;;22.20;54.60;;;;;;5054130;28;20037;-79
2023/04/20 12:30:49;;;;;;;4.85;2.78;;;22.20;54.50;;;;;;5054291;28;20041;-76